Time;durP1;ratioP1;P1;durP2;ratioP2;P2;SDS_P1;SDS_P2;PMS_P1;PMS_P2;Temp;Humidity;BMP_temperature;BMP_pressure;BME280_temperature;BME280_humidity;BME280_pressure;Samples;Min_cycle;Max_cycle;Signal;HPM_P1;HPM_P2
2024/04/12 00:00:32;;;;;;;;;9.50;8.00;;;;;;;;5535094;25;8797;-74
2024/04/12 00:02:58;;;;;;;;;17.25;17.25;;;;;;;;5540548;25;8764;-76
2024/04/12 00:05:23;;;;;;;;;15.00;14.33;;;;;;;;5529919;25;8816;-75
2024/04/12 00:08:01;;;;;;;;;18.67;17.33;;;;;;;;5540382;25;8899;-76
2024/04/12 00:10:27;;;;;;;;;12.75;11.00;;;;;;;;5513265;25;8848;-81
2024/04/12 00:12:52;;;;;;;;;10.00;9.67;;;;;;;;5495929;25;8856;-78
2024/04/12 00:15:21;;;;;;;;;12.33;10.67;;;;;;;;5537047;25;8941;-80
2024/04/12 00:17:47;;;;;;;;;11.50;10.00;;;;;;;;5532835;25;8814;-78
2024/04/12 00:20:13;;;;;;;;;9.00;9.00;;;;;;;;5522299;25;8875;-80
2024/04/12 00:23:04;;;;;;;;;8.67;8.67;;;;;;;;5529636;25;11644;-78
2024/04/12 00:25:29;;;;;;;;;11.50;10.25;;;;;;;;5528156;25;8821;-78
2024/04/12 00:27:55;;;;;;;;;10.33;10.33;;;;;;;;5525772;25;8887;-78
2024/04/12 00:30:41;;;;;;;;;12.00;11.00;;;;;;;;5523041;25;8905;-80
2024/04/12 00:33:10;;;;;;;;;12.00;9.50;;;;;;;;5520879;25;8793;-77
2024/04/12 00:35:41;;;;;;;;;8.50;8.25;;;;;;;;5532395;25;8859;-76
2024/04/12 00:38:09;;;;;;;;;7.75;7.25;;;;;;;;5558736;25;8847;-77
2024/04/12 00:40:48;;;;;;;;;12.25;9.25;;;;;;;;5528822;25;8749;-75
2024/04/12 00:43:18;;;;;;;;;7.75;6.75;;;;;;;;5527149;25;8780;-76
2024/04/12 00:45:45;;;;;;;;;3.25;3.25;;;;;;;;5528815;25;8780;-76
2024/04/12 00:48:11;;;;;;;;;6.00;6.00;;;;;;;;5526965;25;8840;-75
2024/04/12 00:50:37;;;;;;;;;7.33;5.00;;;;;;;;5526309;25;9011;-77
2024/04/12 00:53:05;;;;;;;;;4.75;4.50;;;;;;;;5533693;25;8804;-76
2024/04/12 00:55:35;;;;;;;;;7.00;7.00;;;;;;;;5521354;25;8815;-79
2024/04/12 00:58:00;;;;;;;;;6.00;5.75;;;;;;;;5528803;25;8922;-79
2024/04/12 01:00:48;;;;;;;;;6.67;6.67;;;;;;;;5533437;25;8832;-79
2024/04/12 01:03:46;;;;;;;;;9.50;7.00;;;;;;;;5526527;25;8761;-77
2024/04/12 01:06:23;;;;;;;;;7.75;5.75;;;;;;;;5534108;25;8843;-76
2024/04/12 01:08:58;;;;;;;;;8.25;7.00;;;;;;;;5530682;25;8784;-79
2024/04/12 01:11:26;;;;;;;;;8.25;5.25;;;;;;;;5529921;25;8800;-76
2024/04/12 01:14:13;;;;;;;;;8.25;7.75;;;;;;;;5535453;25;8855;-78
2024/04/12 01:16:55;;;;;;;;;8.00;7.00;;;;;;;;5538072;25;8725;-77
2024/04/12 01:19:42;;;;;;;;;8.00;6.25;;;;;;;;5536855;25;8769;-76
2024/04/12 01:22:15;;;;;;;;;9.75;8.50;;;;;;;;5538767;25;8745;-78
2024/04/12 01:25:09;;;;;;;;;7.33;5.00;;;;;;;;5532099;25;8879;-81
2024/04/12 01:27:57;;;;;;;;;7.75;4.25;;;;;;;;5533796;25;8903;-77
2024/04/12 01:31:29;;;;;;;;;4.75;3.50;;;;;;;;5536665;25;8804;-81
2024/04/12 01:33:52;;;;;;;;;7.75;6.00;;;;;;;;5506985;25;8779;-76
2024/04/12 01:36:17;;;;;;;;;9.25;6.50;;;;;;;;5526156;25;8830;-75
2024/04/12 01:38:53;;;;;;;;;8.67;6.00;;;;;;;;5536645;25;8916;-75
2024/04/12 01:41:21;;;;;;;;;6.50;6.50;;;;;;;;5520667;25;8843;-75
2024/04/12 01:43:52;;;;;;;;;8.50;7.50;;;;;;;;5519136;25;8913;-76
2024/04/12 01:46:17;;;;;;;;;7.75;6.75;;;;;;;;5534033;25;8819;-75
2024/04/12 01:48:43;;;;;;;;;7.00;7.00;;;;;;;;5539759;25;8852;-78
2024/04/12 01:51:13;;;;;;;;;8.00;6.50;;;;;;;;5525486;25;8773;-76
2024/04/12 01:53:40;;;;;;;;;9.25;5.75;;;;;;;;5534342;25;8792;-75
2024/04/12 01:56:05;;;;;;;;;8.25;6.00;;;;;;;;5520718;25;8733;-76
2024/04/12 01:58:34;;;;;;;;;9.33;7.67;;;;;;;;5527377;25;8909;-76
2024/04/12 02:01:02;;;;;;;;;9.00;7.75;;;;;;;;5527105;25;8768;-76
2024/04/12 02:03:30;;;;;;;;;11.50;8.50;;;;;;;;5531796;25;8842;-76
2024/04/12 02:05:56;;;;;;;;;6.00;6.00;;;;;;;;5503459;25;8861;-74
2024/04/12 02:08:23;;;;;;;;;5.25;5.25;;;;;;;;5533634;25;8769;-75
2024/04/12 02:10:49;;;;;;;;;5.00;5.00;;;;;;;;5547805;25;8741;-75
2024/04/12 02:13:17;;;;;;;;;5.00;5.00;;;;;;;;5538063;25;8868;-74
2024/04/12 02:15:43;;;;;;;;;6.25;4.50;;;;;;;;5524232;25;9198;-75
2024/04/12 02:18:08;;;;;;;;;6.00;6.00;;;;;;;;5531597;25;8792;-75
2024/04/12 02:23:53;;;;;;;;;10.25;9.25;;;;;;;;5528204;25;8920;-75
2024/04/12 02:29:21;;;;;;;;;11.50;9.50;;;;;;;;5552334;25;8705;-79
2024/04/12 02:37:51;;;;;;;;;14.25;13.00;;;;;;;;5504249;25;8766;-76
2024/04/12 02:40:18;;;;;;;;;12.67;9.67;;;;;;;;5548204;25;8814;-75
2024/04/12 02:42:44;;;;;;;;;17.00;12.75;;;;;;;;5553103;25;11568;-76
2024/04/12 02:45:12;;;;;;;;;13.00;9.67;;;;;;;;5537017;25;8895;-76
2024/04/12 02:47:38;;;;;;;;;14.50;10.00;;;;;;;;5523138;25;8796;-75
2024/04/12 02:50:09;;;;;;;;;12.00;11.75;;;;;;;;5526899;25;8868;-76
2024/04/12 02:52:34;;;;;;;;;14.25;12.75;;;;;;;;5516474;25;8731;-75
2024/04/12 02:55:00;;;;;;;;;13.67;13.67;;;;;;;;5531702;25;8851;-78
2024/04/12 02:57:28;;;;;;;;;15.00;14.00;;;;;;;;5530397;25;8956;-76
2024/04/12 02:59:53;;;;;;;;;17.75;16.25;;;;;;;;5530264;25;8934;-76
2024/04/12 03:02:19;;;;;;;;;15.33;15.00;;;;;;;;5540851;25;8863;-78
2024/04/12 03:04:44;;;;;;;;;17.67;15.00;;;;;;;;5529623;25;8856;-75
2024/04/12 03:07:11;;;;;;;;;16.67;15.67;;;;;;;;5532229;25;8890;-77
2024/04/12 03:09:40;;;;;;;;;13.00;12.50;;;;;;;;5531633;25;8800;-74
2024/04/12 03:12:06;;;;;;;;;21.25;16.50;;;;;;;;5523474;25;8792;-77
2024/04/12 03:14:32;;;;;;;;;26.00;22.75;;;;;;;;5528059;25;8804;-75
2024/04/12 03:16:57;;;;;;;;;24.67;19.00;;;;;;;;5526464;25;8875;-77
2024/04/12 03:19:22;;;;;;;;;26.67;23.33;;;;;;;;5527186;25;8879;-76
2024/04/12 03:21:50;;;;;;;;;28.67;23.67;;;;;;;;5525590;25;8844;-75
2024/04/12 03:24:18;;;;;;;;;14.25;13.00;;;;;;;;5522862;25;8869;-76
2024/04/12 03:26:44;;;;;;;;;14.75;14.25;;;;;;;;5512620;25;8819;-76
2024/04/12 03:29:11;;;;;;;;;23.00;18.75;;;;;;;;5526024;25;8818;-75
2024/04/12 03:31:38;;;;;;;;;17.75;15.25;;;;;;;;5529709;25;8776;-76
2024/04/12 03:34:13;;;;;;;;;17.75;14.75;;;;;;;;5529621;25;8796;-75
2024/04/12 03:41:46;;;;;;;;;16.25;12.75;;;;;;;;5532880;25;8793;-76
2024/04/12 03:44:13;;;;;;;;;18.50;15.75;;;;;;;;5527037;25;8753;-75
2024/04/12 03:46:40;;;;;;;;;15.25;14.50;;;;;;;;5526007;25;8765;-75
2024/04/12 03:49:09;;;;;;;;;14.25;12.75;;;;;;;;5527941;25;8811;-77
2024/04/12 03:51:39;;;;;;;;;19.75;17.50;;;;;;;;5507854;25;8788;-75
2024/04/12 03:54:11;;;;;;;;;25.25;21.75;;;;;;;;5530840;25;8868;-73
2024/04/12 03:56:36;;;;;;;;;35.25;26.75;;;;;;;;5530007;25;8823;-75
2024/04/12 03:59:04;;;;;;;;;29.33;27.00;;;;;;;;5532563;25;8970;-76
2024/04/12 04:01:31;;;;;;;;;27.00;22.25;;;;;;;;5560463;25;8748;-75
2024/04/12 04:04:08;;;;;;;;;30.00;25.25;;;;;;;;5540947;25;8968;-75
2024/04/12 04:06:36;;;;;;;;;30.25;25.75;;;;;;;;5544358;25;8940;-76
2024/04/12 04:09:05;;;;;;;;;22.50;20.75;;;;;;;;5557295;25;8807;-78
2024/04/12 04:11:42;;;;;;;;;20.50;16.00;;;;;;;;5506350;25;8779;-79
2024/04/12 04:14:09;;;;;;;;;31.25;26.25;;;;;;;;5532353;25;8796;-78
2024/04/12 04:16:38;;;;;;;;;35.75;30.00;;;;;;;;5521590;25;8840;-79
2024/04/12 04:19:03;;;;;;;;;28.00;26.75;;;;;;;;5530696;25;8862;-77
2024/04/12 04:21:33;;;;;;;;;31.33;28.33;;;;;;;;5511193;25;8903;-80
2024/04/12 04:24:08;;;;;;;;;44.00;31.50;;;;;;;;5532867;25;8851;-80
2024/04/12 04:26:34;;;;;;;;;38.00;30.25;;;;;;;;5525962;25;8796;-76
2024/04/12 04:29:00;;;;;;;;;34.33;30.00;;;;;;;;5526074;25;8858;-74
2024/04/12 04:31:26;;;;;;;;;37.67;31.67;;;;;;;;5527945;25;10729;-79
2024/04/12 04:33:57;;;;;;;;;25.33;23.00;;;;;;;;5530178;25;8957;-80
2024/04/12 04:36:24;;;;;;;;;25.75;23.50;;;;;;;;5528685;25;8717;-79
2024/04/12 04:38:49;;;;;;;;;45.00;33.00;;;;;;;;5526810;25;8830;-78
2024/04/12 04:41:19;;;;;;;;;42.67;33.67;;;;;;;;5530873;25;9207;-75
2024/04/12 04:43:46;;;;;;;;;42.00;33.00;;;;;;;;5529674;25;8808;-74
2024/04/12 04:46:27;;;;;;;;;40.67;32.00;;;;;;;;5532441;25;9231;-75
2024/04/12 04:48:55;;;;;;;;;34.00;32.33;;;;;;;;5533044;25;9014;-76
2024/04/12 04:51:22;;;;;;;;;36.00;32.67;;;;;;;;5531912;25;9242;-76
2024/04/12 04:53:52;;;;;;;;;44.67;33.67;;;;;;;;5531513;25;9206;-75
2024/04/12 04:56:30;;;;;;;;;47.00;35.00;;;;;;;;5528097;25;9367;-74
2024/04/12 04:58:56;;;;;;;;;45.67;35.00;;;;;;;;5531946;25;9375;-74
2024/04/12 05:01:24;;;;;;;;;47.67;35.67;;;;;;;;5529305;25;9162;-74
2024/04/12 05:03:50;;;;;;;;;42.33;34.00;;;;;;;;5500393;25;8953;-75
2024/04/12 05:06:24;;;;;;;;;43.67;32.33;;;;;;;;5533345;25;9256;-74
2024/04/12 05:08:49;;;;;;;;;40.67;32.67;;;;;;;;5537666;25;8833;-75
2024/04/12 05:11:15;;;;;;;;;46.00;35.33;;;;;;;;5542352;25;9333;-74
2024/04/12 05:13:41;;;;;;;;;40.00;33.67;;;;;;;;5520559;25;8899;-75
2024/04/12 05:16:15;;;;;;;;;39.67;33.00;;;;;;;;5529093;25;8788;-74
2024/04/12 05:18:44;;;;;;;;;33.00;29.33;;;;;;;;5527646;25;8800;-74
2024/04/12 05:21:12;;;;;;;;;36.33;31.67;;;;;;;;5526944;25;9080;-73
2024/04/12 05:23:38;;;;;;;;;37.00;32.67;;;;;;;;5527452;25;8978;-75
2024/04/12 05:26:03;;;;;;;;;37.00;32.00;;;;;;;;5526601;25;9202;-75
2024/04/12 05:28:28;;;;;;;;;34.00;32.00;;;;;;;;5539694;25;9633;-74
2024/04/12 05:30:54;;;;;;;;;37.67;33.00;;;;;;;;5532728;25;8895;-74
2024/04/12 05:33:22;;;;;;;;;39.00;32.50;;;;;;;;5540432;25;8898;-75
2024/04/12 05:35:48;;;;;;;;;35.50;32.00;;;;;;;;5540527;25;8829;-74
2024/04/12 05:38:13;;;;;;;;;32.67;29.00;;;;;;;;5525455;25;8922;-72
2024/04/12 05:40:42;;;;;;;;;28.33;26.00;;;;;;;;5530140;25;8879;-73
2024/04/12 05:43:13;;;;;;;;;29.25;25.50;;;;;;;;5535609;25;8818;-71
2024/04/12 05:45:39;;;;;;;;;28.25;26.00;;;;;;;;5515701;25;10746;-76
2024/04/12 05:48:12;;;;;;;;;34.00;28.67;;;;;;;;5529393;25;10170;-76
2024/04/12 05:50:39;;;;;;;;;20.25;15.75;;;;;;;;5531153;25;10619;-76
2024/04/12 05:53:04;;;;;;;;;30.25;27.75;;;;;;;;5505982;25;8804;-77
2024/04/12 05:55:30;;;;;;;;;31.67;25.33;;;;;;;;5536168;25;8905;-77
2024/04/12 05:58:00;;;;;;;;;26.00;22.33;;;;;;;;5530997;25;8905;-75
2024/04/12 06:00:25;;;;;;;;;29.25;26.00;;;;;;;;5526901;25;8847;-76
2024/04/12 06:02:50;;;;;;;;;28.00;24.00;;;;;;;;5519656;25;8859;-75
2024/04/12 06:05:18;;;;;;;;;27.00;20.00;;;;;;;;5505286;25;8843;-76
2024/04/12 06:07:47;;;;;;;;;14.00;14.00;;;;;;;;5520664;25;8753;-77
2024/04/12 06:10:13;;;;;;;;;12.25;10.75;;;;;;;;5521325;25;8804;-76
2024/04/12 06:12:40;;;;;;;;;12.00;12.00;;;;;;;;5531101;25;8880;-76
2024/04/12 06:15:06;;;;;;;;;12.00;11.75;;;;;;;;5526822;25;11285;-75
2024/04/12 06:17:31;;;;;;;;;4.67;3.00;;;;;;;;5513365;25;8990;-77
2024/04/12 06:19:59;;;;;;;;;13.00;10.50;;;;;;;;5539327;25;8867;-75
2024/04/12 06:22:26;;;;;;;;;14.00;10.00;;;;;;;;5525188;25;8847;-77
2024/04/12 06:24:51;;;;;;;;;12.75;12.75;;;;;;;;5528714;25;8894;-77
2024/04/12 06:27:17;;;;;;;;;9.00;9.00;;;;;;;;5539957;25;8836;-76
2024/04/12 06:29:44;;;;;;;;;11.75;9.00;;;;;;;;5527434;25;8875;-76
2024/04/12 06:32:09;;;;;;;;;8.80;8.80;;;;;;;;5546910;25;8863;-75
2024/04/12 06:34:37;;;;;;;;;11.00;10.00;;;;;;;;5522844;25;8979;-77
2024/04/12 06:37:06;;;;;;;;;10.20;7.80;;;;;;;;5519162;25;8871;-76
2024/04/12 06:39:31;;;;;;;;;7.00;6.20;;;;;;;;5529517;25;8835;-76
2024/04/12 06:41:57;;;;;;;;;7.25;7.00;;;;;;;;5542593;25;8852;-76
2024/04/12 06:44:24;;;;;;;;;8.25;8.25;;;;;;;;5550801;25;8968;-76
2024/04/12 06:46:52;;;;;;;;;5.00;5.00;;;;;;;;5538855;25;8863;-76
2024/04/12 06:49:19;;;;;;;;;6.80;5.40;;;;;;;;5526474;25;8832;-76
2024/04/12 06:54:35;;;;;;;;;9.20;8.60;;;;;;;;5519351;25;8764;-76
2024/04/12 06:57:02;;;;;;;;;6.80;5.40;;;;;;;;5524336;25;8875;-72
2024/04/12 06:59:35;;;;;;;;;9.40;9.40;;;;;;;;5532859;25;8834;-72
2024/04/12 07:02:01;;;;;;;;;5.80;5.80;;;;;;;;5519175;25;9852;-71
2024/04/12 07:04:28;;;;;;;;;6.40;5.80;;;;;;;;5520491;25;8816;-71
2024/04/12 07:06:56;;;;;;;;;6.80;5.80;;;;;;;;5505100;25;8733;-71
2024/04/12 07:09:22;;;;;;;;;6.20;6.20;;;;;;;;5516492;25;8737;-71
2024/04/12 07:11:51;;;;;;;;;7.60;5.80;;;;;;;;5540113;25;8882;-71
2024/04/12 07:14:17;;;;;;;;;7.60;5.20;;;;;;;;5532366;25;8914;-72
2024/04/12 07:16:42;;;;;;;;;5.25;5.25;;;;;;;;5525339;25;8859;-70
2024/04/12 07:19:09;;;;;;;;;10.25;9.25;;;;;;;;5527470;25;8867;-71
2024/04/12 07:21:37;;;;;;;;;10.00;7.40;;;;;;;;5526859;25;8854;-76
2024/04/12 07:24:03;;;;;;;;;8.00;6.80;;;;;;;;5530092;25;8784;-76
2024/04/12 07:26:29;;;;;;;;;10.75;6.75;;;;;;;;5524896;25;8851;-76
2024/04/12 07:29:01;;;;;;;;;6.25;4.75;;;;;;;;5530369;25;8905;-76
2024/04/12 07:31:27;;;;;;;;;5.40;5.40;;;;;;;;5518881;25;8792;-75
2024/04/12 07:33:54;;;;;;;;;6.00;6.00;;;;;;;;5508978;25;8803;-77
2024/04/12 07:36:19;;;;;;;;;8.20;5.60;;;;;;;;5511455;25;8896;-75
2024/04/12 07:38:49;;;;;;;;;6.00;5.50;;;;;;;;5540770;25;8883;-77
2024/04/12 07:41:14;;;;;;;;;8.40;8.40;;;;;;;;5534265;25;8852;-75
2024/04/12 07:43:42;;;;;;;;;5.00;3.75;;;;;;;;5519566;25;8847;-76
2024/04/12 07:46:14;;;;;;;;;6.20;5.00;;;;;;;;5524415;25;8751;-74
2024/04/12 07:48:41;;;;;;;;;6.00;6.00;;;;;;;;5556771;25;9779;-77
2024/04/12 07:51:07;;;;;;;;;6.00;5.20;;;;;;;;5546015;25;9690;-77
2024/04/12 07:53:34;;;;;;;;;4.50;4.50;;;;;;;;5549433;25;9479;-75
2024/04/12 07:56:14;;;;;;;;;4.60;4.00;;;;;;;;5529124;25;8851;-77
2024/04/12 07:58:40;;;;;;;;;3.40;3.40;;;;;;;;5518303;25;9822;-75
2024/04/12 08:01:15;;;;;;;;;5.80;4.40;;;;;;;;5528202;25;8883;-74
2024/04/12 08:03:56;;;;;;;;;4.40;4.00;;;;;;;;5520814;25;8895;-75
2024/04/12 08:06:36;;;;;;;;;4.00;4.00;;;;;;;;5527954;25;9843;-76
2024/04/12 08:09:06;;;;;;;;;4.20;4.00;;;;;;;;5515311;25;8818;-76
2024/04/12 08:11:33;;;;;;;;;4.00;4.00;;;;;;;;5521156;25;9890;-76
2024/04/12 08:14:08;;;;;;;;;5.00;3.60;;;;;;;;5516425;25;8936;-76
2024/04/12 08:16:36;;;;;;;;;4.00;3.20;;;;;;;;5513863;25;9432;-74
2024/04/12 08:19:15;;;;;;;;;5.00;5.00;;;;;;;;5522224;25;8784;-75
2024/04/12 08:21:41;;;;;;;;;5.60;5.60;;;;;;;;5510412;25;8792;-77
2024/04/12 08:24:09;;;;;;;;;6.00;5.00;;;;;;;;5527289;25;8780;-76
2024/04/12 08:26:34;;;;;;;;;5.60;4.00;;;;;;;;5529589;25;11374;-76
2024/04/12 08:29:00;;;;;;;;;3.75;2.50;;;;;;;;5533105;25;8970;-75
2024/04/12 08:31:25;;;;;;;;;3.25;3.25;;;;;;;;5524226;25;9072;-75
2024/04/12 08:33:53;;;;;;;;;3.25;3.25;;;;;;;;5552370;25;8844;-76
2024/04/12 08:36:18;;;;;;;;;1.80;1.80;;;;;;;;5523989;25;8789;-77
2024/04/12 08:39:11;;;;;;;;;7.00;6.00;;;;;;;;5533672;25;8843;-75
2024/04/12 08:41:37;;;;;;;;;16.75;13.75;;;;;;;;5525264;25;9113;-76
2024/04/12 08:44:09;;;;;;;;;4.50;4.50;;;;;;;;5525688;25;8835;-76
2024/04/12 08:46:36;;;;;;;;;3.40;2.00;;;;;;;;5504425;25;11471;-75
2024/04/12 08:49:04;;;;;;;;;3.60;3.40;;;;;;;;5530063;25;8843;-77
2024/04/12 08:51:34;;;;;;;;;5.60;5.00;;;;;;;;5534306;25;8871;-76
2024/04/12 08:54:05;;;;;;;;;6.60;5.00;;;;;;;;5527994;25;9673;-72
2024/04/12 08:56:30;;;;;;;;;4.20;3.20;;;;;;;;5529313;25;8713;-76
2024/04/12 08:58:59;;;;;;;;;4.00;3.00;;;;;;;;5536838;25;9633;-76
2024/04/12 09:01:25;;;;;;;;;3.00;2.60;;;;;;;;5543940;25;8859;-77
2024/04/12 09:03:54;;;;;;;;;3.00;3.00;;;;;;;;5539233;25;8772;-73
2024/04/12 09:06:23;;;;;;;;;3.20;2.00;;;;;;;;5553172;25;8741;-73
2024/04/12 09:08:51;;;;;;;;;1.00;1.00;;;;;;;;5554354;25;8812;-77
2024/04/12 09:11:19;;;;;;;;;3.00;3.00;;;;;;;;5516502;25;8957;-73
2024/04/12 09:13:46;;;;;;;;;5.60;3.60;;;;;;;;5520895;25;8820;-73
2024/04/12 09:16:19;;;;;;;;;3.60;1.60;;;;;;;;5525507;25;8780;-72
2024/04/12 09:18:46;;;;;;;;;2.20;2.00;;;;;;;;5529805;25;8832;-72
2024/04/12 09:21:23;;;;;;;;;1.00;1.00;;;;;;;;5525602;25;8973;-72
2024/04/12 09:23:50;;;;;;;;;3.60;3.00;;;;;;;;5521789;25;8745;-73
2024/04/12 09:26:22;;;;;;;;;2.00;2.00;;;;;;;;5530167;25;8839;-71
2024/04/12 09:28:48;;;;;;;;;2.60;2.60;;;;;;;;5524728;25;8804;-74
2024/04/12 09:34:22;;;;;;;;;4.00;4.00;;;;;;;;5528304;25;8749;-72
2024/04/12 09:37:01;;;;;;;;;3.00;2.00;;;;;;;;5530978;25;8814;-76
2024/04/12 09:39:57;;;;;;;;;1.00;1.00;;;;;;;;5524737;25;8812;-78
2024/04/12 09:42:14;;;;;;;;;5.20;5.20;;;;;;;;5523131;25;8834;-76
2024/04/12 09:44:59;;;;;;;;;4.40;3.00;;;;;;;;5522995;25;8836;-76
2024/04/12 10:40:16;;;;;;;;;5.40;4.00;;;;;;;;5542436;25;8737;-81
2024/04/12 10:43:25;;;;;;;;;2.60;2.00;;;;;;;;5540711;25;8744;-82
2024/04/12 10:46:19;;;;;;;;;3.40;3.20;;;;;;;;5524032;25;8745;-80
2024/04/12 10:48:52;;;;;;;;;12.20;8.00;;;;;;;;5530573;25;8800;-77
2024/04/12 10:51:19;;;;;;;;;4.40;4.40;;;;;;;;5555624;25;8755;-83
2024/04/12 10:57:06;;;;;;;;;8.60;8.20;;;;;;;;5532502;25;8749;-81
2024/04/12 10:59:35;;;;;;;;;5.00;3.40;;;;;;;;5510878;25;8755;-81
2024/04/12 11:02:15;;;;;;;;;2.00;2.00;;;;;;;;5486595;25;8795;-82
2024/04/12 11:07:39;;;;;;;;;1.80;1.80;;;;;;;;5512304;25;8819;-73
2024/04/12 11:10:04;;;;;;;;;3.00;3.00;;;;;;;;5547482;25;8986;-83
2024/04/12 11:12:40;;;;;;;;;3.75;2.75;;;;;;;;5499109;25;9590;-79
2024/04/12 11:31:55;;;;;;;;;3.25;1.75;;;;;;;;5453018;25;44638;-79
2024/04/12 11:34:20;;;;;;;;;2.25;2.25;;;;;;;;5495012;25;44635;-79
2024/04/12 11:36:46;;;;;;;;;2.50;2.00;;;;;;;;5495575;25;44863;-79
2024/04/12 11:39:18;;;;;;;;;2.00;2.00;;;;;;;;5500239;25;44460;-80
2024/04/12 11:41:44;;;;;;;;;1.25;1.25;;;;;;;;5500962;25;43763;-80
2024/04/12 11:44:10;;;;;;;;;2.50;2.00;;;;;;;;5507387;25;44491;-80
2024/04/12 11:46:35;;;;;;;;;2.75;2.75;;;;;;;;5518909;25;46018;-79
2024/04/12 11:49:07;;;;;;;;;3.75;2.25;;;;;;;;5507635;25;44362;-79
2024/04/12 11:51:33;;;;;;;;;5.00;2.25;;;;;;;;5482609;25;44217;-80
2024/04/12 11:53:59;;;;;;;;;3.50;2.75;;;;;;;;5486760;25;44661;-81
2024/04/12 11:56:24;;;;;;;;;2.00;1.00;;;;;;;;5494265;25;45052;-79
2024/04/12 11:58:51;;;;;;;;;3.00;2.00;;;;;;;;5490331;25;44458;-78
2024/04/12 12:01:16;;;;;;;;;3.25;1.75;;;;;;;;5507807;25;44452;-77
2024/04/12 12:03:42;;;;;;;;;2.25;0.00;;;;;;;;5525314;25;44056;-76
2024/04/12 12:06:07;;;;;;;;;1.50;1.00;;;;;;;;5510363;25;44893;-78
2024/04/12 12:08:41;;;;;;;;;3.00;1.25;;;;;;;;5514063;25;44323;-77
2024/04/12 12:11:06;;;;;;;;;1.50;0.00;;;;;;;;5497372;25;44857;-77
2024/04/12 12:13:32;;;;;;;;;2.75;1.00;;;;;;;;5504433;25;44246;-77
2024/04/12 12:15:58;;;;;;;;;1.75;0.25;;;;;;;;5480687;25;44615;-78
2024/04/12 12:18:27;;;;;;;;;1.25;0.75;;;;;;;;5497497;25;43824;-77
2024/04/12 12:20:52;;;;;;;;;0.00;0.00;;;;;;;;5505087;25;44489;-78
2024/04/12 12:23:18;;;;;;;;;3.00;0.75;;;;;;;;5495510;25;44023;-76
2024/04/12 12:25:43;;;;;;;;;2.25;2.25;;;;;;;;5519084;25;44632;-77
2024/04/12 12:28:09;;;;;;;;;2.00;2.00;;;;;;;;5503146;25;44428;-79
2024/04/12 12:30:34;;;;;;;;;0.00;0.00;;;;;;;;5506654;25;44290;-78
2024/04/12 12:33:00;;;;;;;;;0.00;0.00;;;;;;;;5526021;25;44228;-78
2024/04/12 12:35:25;;;;;;;;;1.25;1.00;;;;;;;;5486728;25;47140;-77
2024/04/12 12:37:51;;;;;;;;;1.50;1.25;;;;;;;;5495284;25;43952;-77
2024/04/12 12:40:21;;;;;;;;;4.00;1.25;;;;;;;;5493755;25;44409;-77
2024/04/12 12:42:47;;;;;;;;;0.00;0.00;;;;;;;;5485718;25;44423;-78
2024/04/12 12:45:13;;;;;;;;;1.00;1.00;;;;;;;;5480430;25;46769;-77
2024/04/12 12:47:38;;;;;;;;;5.00;1.25;;;;;;;;5487541;25;44406;-78
2024/04/12 12:50:04;;;;;;;;;1.00;1.00;;;;;;;;5496709;25;44479;-77
2024/04/12 12:52:32;;;;;;;;;1.00;1.00;;;;;;;;5488509;25;44079;-77
2024/04/12 12:55:00;;;;;;;;;3.00;1.50;;;;;;;;5467838;25;44174;-78
2024/04/12 12:57:25;;;;;;;;;2.00;0.00;;;;;;;;5483012;25;44113;-77
2024/04/12 12:59:54;;;;;;;;;3.00;2.00;;;;;;;;5524875;25;44427;-79
2024/04/12 13:02:19;;;;;;;;;0.00;0.00;;;;;;;;5495199;25;44540;-77
2024/04/12 13:04:48;;;;;;;;;2.50;2.00;;;;;;;;5505887;25;45711;-79
2024/04/12 13:07:16;;;;;;;;;2.00;2.00;;;;;;;;5495112;25;44499;-78
2024/04/12 13:09:42;;;;;;;;;0.00;0.00;;;;;;;;5490110;25;44567;-78
2024/04/12 13:12:11;;;;;;;;;1.50;1.50;;;;;;;;5489867;25;44472;-79
2024/04/12 13:14:40;;;;;;;;;1.00;1.00;;;;;;;;5490127;25;45878;-77
2024/04/12 13:17:12;;;;;;;;;1.75;1.75;;;;;;;;5493374;25;44618;-79
2024/04/12 13:19:38;;;;;;;;;1.50;1.00;;;;;;;;5488520;25;44206;-79
2024/04/12 13:22:04;;;;;;;;;1.00;0.25;;;;;;;;5486243;25;44281;-78
2024/04/12 13:24:30;;;;;;;;;3.50;1.00;;;;;;;;5521848;25;44568;-77
2024/04/12 13:26:55;;;;;;;;;2.00;1.25;;;;;;;;5478628;25;43996;-79
2024/04/12 13:29:24;;;;;;;;;2.25;2.25;;;;;;;;5488017;25;45475;-78
2024/04/12 13:31:52;;;;;;;;;2.00;2.00;;;;;;;;5482305;25;44130;-76
2024/04/12 13:34:21;;;;;;;;;2.50;2.00;;;;;;;;5494655;25;46106;-78
2024/04/12 13:36:47;;;;;;;;;2.00;2.00;;;;;;;;5493268;25;43887;-77
2024/04/12 13:39:14;;;;;;;;;1.00;1.00;;;;;;;;5488682;25;44410;-77
2024/04/12 13:41:43;;;;;;;;;1.00;1.00;;;;;;;;5494016;25;43959;-76
2024/04/12 13:44:09;;;;;;;;;4.50;3.50;;;;;;;;5483580;25;44486;-77
2024/04/12 13:52:23;;;;;;;;;2.00;2.00;;;;;;;;5435794;26;44427;-78
2024/04/12 13:54:50;;;;;;;;;2.00;0.50;;;;;;;;5456526;25;45876;-77
2024/04/12 13:57:17;;;;;;;;;3.25;1.50;;;;;;;;5502166;25;44324;-76
2024/04/12 13:59:44;;;;;;;;;3.00;3.00;;;;;;;;5485709;25;44432;-77
2024/04/12 14:02:09;;;;;;;;;0.00;0.00;;;;;;;;5511178;25;46116;-78
2024/04/12 14:04:38;;;;;;;;;0.75;0.00;;;;;;;;5476905;25;44052;-79
2024/04/12 14:07:04;;;;;;;;;1.00;1.00;;;;;;;;5481011;25;44326;-78
2024/04/12 14:09:30;;;;;;;;;1.00;0.00;;;;;;;;5499048;25;44294;-77
2024/04/12 14:11:56;;;;;;;;;3.00;3.00;;;;;;;;5489847;25;44038;-78
2024/04/12 14:14:22;;;;;;;;;3.25;3.00;;;;;;;;5471538;25;45529;-76
2024/04/12 14:16:48;;;;;;;;;15.00;12.00;;;;;;;;5500560;25;44440;-77
2024/04/12 14:19:20;;;;;;;;;3.50;2.00;;;;;;;;5503052;25;43949;-78
2024/04/12 14:21:49;;;;;;;;;2.25;1.00;;;;;;;;5515018;25;44362;-78
2024/04/12 14:24:56;;;;;;;;;2.25;0.75;;;;;;;;5495222;25;45776;-78
2024/04/12 14:27:00;;;;;;;;;1.00;1.00;;;;;;;;5461106;25;44110;-75
2024/04/12 14:29:26;;;;;;;;;0.75;0.75;;;;;;;;5481174;25;43992;-76
2024/04/12 14:31:55;;;;;;;;;1.00;0.00;;;;;;;;5508559;25;44422;-77
2024/04/12 14:34:20;;;;;;;;;1.00;1.00;;;;;;;;5498669;25;46703;-77
2024/04/12 14:36:45;;;;;;;;;2.25;2.25;;;;;;;;5510395;25;43824;-78
2024/04/12 14:39:15;;;;;;;;;1.75;1.75;;;;;;;;5489151;25;44099;-76
2024/04/12 14:41:41;;;;;;;;;1.50;1.50;;;;;;;;5504049;25;44328;-76
2024/04/12 14:44:06;;;;;;;;;1.75;1.50;;;;;;;;5525681;25;44716;-76
2024/04/12 14:46:32;;;;;;;;;9.00;7.67;;;;;;;;5479267;25;44438;-77
2024/04/12 14:48:57;;;;;;;;;2.75;2.00;;;;;;;;5475815;25;44338;-78
2024/04/12 14:51:23;;;;;;;;;3.25;2.00;;;;;;;;5462870;25;44756;-77
2024/04/12 14:53:48;;;;;;;;;1.75;1.75;;;;;;;;5459800;25;44072;-76
2024/04/12 14:56:16;;;;;;;;;1.00;1.00;;;;;;;;5500084;25;43949;-75
2024/04/12 14:58:41;;;;;;;;;2.00;1.00;;;;;;;;5487498;25;44497;-76
2024/04/12 15:01:07;;;;;;;;;2.00;1.00;;;;;;;;5491289;25;45054;-77
2024/04/12 15:52:11;;;;;;;;;3.00;1.50;;;;;;;;5478127;25;44655;-77
2024/04/12 15:54:45;;;;;;;;;1.00;1.00;;;;;;;;5522723;25;44216;-76
2024/04/12 16:10:56;;;;;;;;;1.00;1.00;;;;;;;;5507439;25;44396;-79
2024/04/12 16:13:23;;;;;;;;;1.00;1.00;;;;;;;;5508963;25;44503;-77
2024/04/12 16:15:48;;;;;;;;;1.00;1.00;;;;;;;;5521871;25;44433;-79
2024/04/12 16:18:14;;;;;;;;;1.25;1.25;;;;;;;;5517069;25;45188;-77
2024/04/12 16:20:39;;;;;;;;;1.00;1.00;;;;;;;;5489188;25;44110;-78
2024/04/12 16:23:04;;;;;;;;;4.50;2.50;;;;;;;;5488457;25;43859;-77
2024/04/12 16:25:29;;;;;;;;;1.75;1.75;;;;;;;;5479451;25;44039;-77
2024/04/12 16:27:55;;;;;;;;;1.00;1.00;;;;;;;;5484535;25;44786;-77
2024/04/12 16:30:20;;;;;;;;;2.00;2.00;;;;;;;;5489694;25;44581;-77
2024/04/12 16:32:45;;;;;;;;;0.75;0.75;;;;;;;;5497750;25;44458;-79
2024/04/12 16:35:11;;;;;;;;;0.50;0.50;;;;;;;;5511164;25;44989;-76
2024/04/12 16:37:37;;;;;;;;;1.50;1.00;;;;;;;;5507078;25;45631;-78
2024/04/12 16:40:02;;;;;;;;;2.00;1.00;;;;;;;;5509141;25;44498;-76
2024/04/12 16:42:27;;;;;;;;;2.00;2.00;;;;;;;;5486953;25;44553;-77
2024/04/12 16:44:52;;;;;;;;;2.00;2.00;;;;;;;;5520226;25;44355;-79
2024/04/12 16:47:18;;;;;;;;;3.00;3.00;;;;;;;;5513538;25;45413;-76
2024/04/12 16:49:43;;;;;;;;;1.75;1.00;;;;;;;;5496584;25;44122;-79
2024/04/12 16:52:09;;;;;;;;;3.00;2.00;;;;;;;;5508480;25;43998;-78
2024/04/12 16:54:34;;;;;;;;;0.00;0.00;;;;;;;;5500143;25;45094;-77
2024/04/12 16:57:00;;;;;;;;;1.75;1.75;;;;;;;;5500917;25;45307;-77
2024/04/12 16:59:25;;;;;;;;;1.00;1.00;;;;;;;;5488330;25;43971;-77
2024/04/12 17:01:50;;;;;;;;;2.00;0.00;;;;;;;;5465943;25;44120;-78
2024/04/12 17:04:17;;;;;;;;;1.00;1.00;;;;;;;;5510093;25;45605;-82
2024/04/12 17:06:42;;;;;;;;;1.25;1.25;;;;;;;;5469251;25;45411;-77
2024/04/12 17:09:09;;;;;;;;;1.00;1.00;;;;;;;;5485434;25;44566;-78
2024/04/12 17:11:34;;;;;;;;;2.00;2.00;;;;;;;;5478891;25;44054;-77
2024/04/12 17:14:01;;;;;;;;;1.75;1.75;;;;;;;;5483569;25;44407;-78
2024/04/12 17:16:27;;;;;;;;;1.00;1.00;;;;;;;;5490946;25;45880;-79
2024/04/12 17:18:52;;;;;;;;;1.00;1.00;;;;;;;;5480225;25;44383;-78
2024/04/12 17:21:17;;;;;;;;;0.75;0.00;;;;;;;;5481569;25;44417;-81
2024/04/12 17:23:43;;;;;;;;;2.75;1.50;;;;;;;;5484985;25;44464;-78
2024/04/12 17:26:08;;;;;;;;;1.75;1.00;;;;;;;;5478003;25;44390;-78
2024/04/12 17:28:33;;;;;;;;;2.00;0.00;;;;;;;;5491064;25;44415;-77
2024/04/12 17:30:59;;;;;;;;;2.50;0.75;;;;;;;;5505564;25;44404;-78
2024/04/12 17:33:27;;;;;;;;;2.75;2.25;;;;;;;;5511588;25;44194;-77
2024/04/12 17:35:53;;;;;;;;;2.00;2.00;;;;;;;;5500560;25;44810;-78
2024/04/12 17:38:18;;;;;;;;;1.00;1.00;;;;;;;;5511956;25;44545;-78